Time;durP1;ratioP1;P1;durP2;ratioP2;P2;SDS_P1;SDS_P2;PMS_P1;PMS_P2;Temp;Humidity;BMP_temperature;BMP_pressure;BME280_temperature;BME280_humidity;BME280_pressure;Samples;Min_cycle;Max_cycle;Signal;HPM_P1;HPM_P2
2022/04/26 03:36:47;;;;;;;;;;;14.30;99.90;;;;;;5009315;28;20055;-73
2022/04/26 03:39:12;;;;;;;;;;;14.20;99.90;;;;;;5013026;28;19992;-74
2022/04/26 03:41:38;;;;;;;;;;;14.20;99.90;;;;;;5012190;28;19905;-73
2022/04/26 03:44:03;;;;;;;;;;;14.20;99.90;;;;;;5012110;28;19916;-73
2022/04/26 03:46:29;;;;;;;;;;;14.20;99.90;;;;;;5010911;28;20024;-73
2022/04/26 03:48:55;;;;;;;;;;;14.20;99.90;;;;;;5009477;28;19909;-73
2022/04/26 03:51:20;;;;;;;;;;;14.20;99.90;;;;;;5006406;28;20366;-73
2022/04/26 03:53:47;;;;;;;;;;;14.30;99.90;;;;;;5012902;28;19906;-72
2022/04/26 03:56:12;;;;;;;;;;;14.30;99.90;;;;;;5013313;28;20288;-73
2022/04/26 03:58:38;;;;;;;;;;;14.40;99.90;;;;;;5011773;28;19905;-72
2022/04/26 04:01:04;;;;;;;;;;;14.40;99.90;;;;;;5005375;28;19917;-73
2022/04/26 04:03:30;;;;;;;;;;;14.40;99.90;;;;;;5009753;28;20324;-73
2022/04/26 04:05:55;;;;;;;;;;;14.40;99.90;;;;;;5010057;28;19913;-74
2022/04/26 04:08:21;;;;;;;;;;;14.40;99.90;;;;;;5012775;28;19960;-74
2022/04/26 04:10:46;;;;;;;;;;;14.40;99.90;;;;;;5003574;28;19909;-72
2022/04/26 04:13:13;;;;;;;;;;;14.40;99.90;;;;;;5007779;28;19917;-72
2022/04/26 04:15:39;;;;;;;;;;;14.40;99.90;;;;;;5011820;28;20258;-72
2022/04/26 04:19:17;;;;;;;;;;;14.30;99.90;;;;;;5012438;28;19929;-74
2022/04/26 04:20:50;;;;;;;;;;;14.40;99.90;;;;;;5011460;28;19932;-73
2022/04/26 04:23:15;;;;;;;;;;;14.40;99.90;;;;;;5013080;28;19991;-74
2022/04/26 04:25:41;;;;;;;;;;;14.40;99.90;;;;;;5010947;28;20303;-74
2022/04/26 04:28:06;;;;;;;;;;;14.40;99.90;;;;;;5011211;28;19905;-74
2022/04/26 04:30:32;;;;;;;;;;;14.40;99.90;;;;;;5009897;28;19910;-75
2022/04/26 04:32:57;;;;;;;;;;;14.50;99.90;;;;;;5010204;28;20398;-74
2022/04/26 04:35:23;;;;;;;;;;;14.50;99.90;;;;;;5008953;28;19925;-73
2022/04/26 04:37:49;;;;;;;;;;;14.40;99.90;;;;;;5008859;28;20373;-73
2022/04/26 04:40:15;;;;;;;;;;;14.50;99.90;;;;;;5010135;28;19910;-74
2022/04/26 04:42:40;;;;;;;;;;;14.50;99.90;;;;;;5010623;28;19992;-73
2022/04/26 04:45:06;;;;;;;;;;;14.50;99.90;;;;;;5012622;28;19932;-74
2022/04/26 04:47:32;;;;;;;;;;;14.40;99.90;;;;;;5013376;28;20358;-73
2022/04/26 04:49:57;;;;;;;;;;;14.50;99.90;;;;;;5010577;28;20071;-73
2022/04/26 04:52:23;;;;;;;;;;;14.50;99.90;;;;;;5009523;28;19913;-73
2022/04/26 04:54:48;;;;;;;;;;;14.40;99.90;;;;;;5012680;28;19967;-73
2022/04/26 04:57:14;;;;;;;;;;;14.40;99.90;;;;;;5004258;28;19909;-73
2022/04/26 04:59:39;;;;;;;;;;;14.50;99.90;;;;;;5012182;28;19951;-74
2022/04/26 05:02:05;;;;;;;;;;;14.50;99.90;;;;;;5012309;28;19947;-72
2022/04/26 05:04:31;;;;;;;;;;;14.50;99.90;;;;;;5009447;28;19916;-72
2022/04/26 05:06:56;;;;;;;;;;;14.50;99.90;;;;;;5010676;28;19905;-74
2022/04/26 05:09:22;;;;;;;;;;;14.60;99.90;;;;;;5010586;28;19919;-74
2022/04/26 05:11:48;;;;;;;;;;;14.70;99.90;;;;;;5011539;28;20199;-74
2022/04/26 05:14:14;;;;;;;;;;;14.70;99.90;;;;;;5010756;28;19914;-73
2022/04/26 05:16:39;;;;;;;;;;;14.70;99.90;;;;;;5008310;28;20289;-73
2022/04/26 05:19:05;;;;;;;;;;;14.80;99.90;;;;;;5012028;28;19912;-73
2022/04/26 05:21:30;;;;;;;;;;;14.70;99.90;;;;;;5012088;28;19906;-74
2022/04/26 05:26:40;;;;;;;;;;;14.90;99.90;;;;;;5012154;28;19947;-73
2022/04/26 05:29:06;;;;;;;;;;;14.90;99.90;;;;;;5009389;28;19952;-72
2022/04/26 05:31:31;;;;;;;;;;;15.00;99.90;;;;;;5009460;28;19917;-75
2022/04/26 05:33:57;;;;;;;;;;;15.00;99.90;;;;;;5007898;28;20011;-73
2022/04/26 05:36:23;;;;;;;;;;;15.00;99.90;;;;;;5010460;28;19910;-74
2022/04/26 05:38:48;;;;;;;;;;;15.10;99.90;;;;;;5010694;28;20348;-75
2022/04/26 05:41:14;;;;;;;;;;;15.00;99.90;;;;;;5010751;28;20328;-73
2022/04/26 05:43:40;;;;;;;;;;;14.90;99.90;;;;;;5011087;28;20013;-73
2022/04/26 05:46:09;;;;;;;;;;;15.00;99.90;;;;;;5011605;28;20336;-73
2022/04/26 05:48:35;;;;;;;;;;;15.10;99.90;;;;;;5009284;28;19952;-74
2022/04/26 05:51:00;;;;;;;;;;;15.20;99.90;;;;;;5009585;28;19909;-74
2022/04/26 05:53:26;;;;;;;;;;;15.20;99.90;;;;;;5009398;28;19951;-73
2022/04/26 05:55:52;;;;;;;;;;;15.30;99.90;;;;;;5008311;28;19913;-73
2022/04/26 05:58:17;;;;;;;;;;;15.30;99.90;;;;;;5009087;28;19913;-73
2022/04/26 06:00:43;;;;;;;;;;;15.40;99.90;;;;;;5010547;28;19905;-73
2022/04/26 06:03:08;;;;;;;;;;;15.40;99.90;;;;;;5012927;28;20399;-71
2022/04/26 06:05:35;;;;;;;;;;;15.20;99.90;;;;;;5008134;28;20267;-73
2022/04/26 06:08:01;;;;;;;;;;;15.20;99.90;;;;;;5008443;28;19952;-72
2022/04/26 06:10:28;;;;;;;;;;;15.30;99.90;;;;;;5010539;28;19977;-72
2022/04/26 06:12:53;;;;;;;;;;;15.30;99.90;;;;;;5013431;28;19909;-74
2022/04/26 06:15:21;;;;;;;;;;;15.30;99.90;;;;;;5009683;28;19933;-72
2022/04/26 06:17:52;;;;;;;;;;;15.30;99.90;;;;;;5012919;28;19910;-72
2022/04/26 06:20:20;;;;;;;;;;;15.30;99.90;;;;;;5009155;28;19917;-73
2022/04/26 06:22:54;;;;;;;;;;;15.60;99.90;;;;;;5006663;28;19913;-73
2022/04/26 06:25:20;;;;;;;;;;;15.90;99.90;;;;;;5006680;28;19917;-71
2022/04/26 06:27:47;;;;;;;;;;;16.10;99.90;;;;;;5003548;28;19913;-70
2022/04/26 06:30:13;;;;;;;;;;;16.10;99.90;;;;;;5008187;28;19961;-70
2022/04/26 06:32:42;;;;;;;;;;;15.90;99.90;;;;;;5003778;28;222571;-72
2022/04/26 06:35:08;;;;;;;;;;;15.90;99.90;;;;;;5013457;28;19948;-72
2022/04/26 06:37:33;;;;;;;;;;;16.00;99.90;;;;;;5010686;28;19910;-70
2022/04/26 06:39:59;;;;;;;;;;;16.00;99.90;;;;;;5009411;28;19916;-71
2022/04/26 06:42:25;;;;;;;;;;;16.10;99.90;;;;;;5007032;28;19936;-75
2022/04/26 06:44:50;;;;;;;;;;;16.30;99.90;;;;;;5007138;28;20087;-71
2022/04/26 06:47:16;;;;;;;;;;;16.40;99.90;;;;;;5007611;28;19917;-70
2022/04/26 06:49:41;;;;;;;;;;;16.50;99.90;;;;;;5008221;28;19909;-70
2022/04/26 06:52:07;;;;;;;;;;;16.70;99.90;;;;;;5009899;28;20016;-70
2022/04/26 06:54:33;;;;;;;;;;;17.00;99.90;;;;;;5009127;28;19908;-70
2022/04/26 06:56:58;;;;;;;;;;;17.10;99.90;;;;;;5010347;28;19913;-71
2022/04/26 06:59:24;;;;;;;;;;;17.20;99.90;;;;;;5009524;28;20020;-69
2022/04/26 07:01:53;;;;;;;;;;;17.30;99.90;;;;;;5008509;28;19954;-69
2022/04/26 07:04:19;;;;;;;;;;;17.50;99.90;;;;;;5011081;28;19909;-70
2022/04/26 07:06:45;;;;;;;;;;;17.60;99.90;;;;;;5010263;28;20043;-70
2022/04/26 07:09:11;;;;;;;;;;;17.60;99.90;;;;;;5009455;28;19968;-70
2022/04/26 07:11:36;;;;;;;;;;;17.50;99.90;;;;;;5005056;28;20276;-69
2022/04/26 07:14:02;;;;;;;;;;;17.50;99.90;;;;;;5009647;28;20400;-70
2022/04/26 07:16:27;;;;;;;;;;;17.60;99.90;;;;;;5007425;28;19910;-71
2022/04/26 07:18:53;;;;;;;;;;;17.90;99.90;;;;;;5014287;28;19917;-69
2022/04/26 07:21:19;;;;;;;;;;;18.20;99.90;;;;;;5014756;28;19912;-68
2022/04/26 07:23:45;;;;;;;;;;;18.40;99.90;;;;;;5010552;28;19909;-68
2022/04/26 07:26:10;;;;;;;;;;;18.40;99.90;;;;;;5012979;28;20321;-68
2022/04/26 07:28:36;;;;;;;;;;;18.30;99.90;;;;;;5009019;28;19917;-70
2022/04/26 07:31:01;;;;;;;;;;;18.20;99.90;;;;;;5006328;28;19995;-69
2022/04/26 07:36:11;;;;;;;;;;;18.60;99.90;;;;;;5014145;28;19916;-71
2022/04/26 07:38:37;;;;;;;;;;;18.70;99.90;;;;;;5014794;28;19909;-71
2022/04/26 07:41:03;;;;;;;;;;;18.70;99.90;;;;;;5011432;28;19909;-71
2022/04/26 07:43:28;;;;;;;;;;;18.70;99.90;;;;;;5012846;28;19932;-71
2022/04/26 07:45:54;;;;;;;;;;;18.80;99.90;;;;;;5014245;28;19964;-70
2022/04/26 07:48:22;;;;;;;;;;;18.90;99.90;;;;;;5014271;28;19933;-72
2022/04/26 07:50:48;;;;;;;;;;;19.00;99.90;;;;;;5011661;28;20436;-70
2022/04/26 07:53:14;;;;;;;;;;;18.90;99.90;;;;;;5011834;28;19905;-72
2022/04/26 07:55:39;;;;;;;;;;;18.80;99.90;;;;;;5010724;28;19936;-71
2022/04/26 07:58:05;;;;;;;;;;;18.40;99.90;;;;;;5013234;28;19906;-69
2022/04/26 08:00:31;;;;;;;;;;;17.80;99.90;;;;;;5007661;28;19997;-72
2022/04/26 08:02:56;;;;;;;;;;;17.60;99.90;;;;;;5010211;28;19973;-72
2022/04/26 08:05:22;;;;;;;;;;;17.40;99.90;;;;;;5011504;28;20322;-72
2022/04/26 08:07:49;;;;;;;;;;;17.40;99.90;;;;;;5012084;28;19931;-70
2022/04/26 08:10:15;;;;;;;;;;;17.40;99.90;;;;;;5011338;28;19913;-71
2022/04/26 08:12:41;;;;;;;;;;;17.60;99.90;;;;;;5011495;28;19905;-70
2022/04/26 08:15:07;;;;;;;;;;;17.80;99.90;;;;;;5012977;28;20328;-70
2022/04/26 08:17:33;;;;;;;;;;;17.90;99.90;;;;;;5012226;28;19905;-71
2022/04/26 08:19:59;;;;;;;;;;;17.80;99.90;;;;;;5012144;28;19913;-69
2022/04/26 08:22:25;;;;;;;;;;;17.90;99.90;;;;;;5010476;28;19916;-71
2022/04/26 08:27:35;;;;;;;;;;;18.20;99.90;;;;;;5011559;28;19912;-71
2022/04/26 08:30:03;;;;;;;;;;;18.50;99.90;;;;;;5011770;28;19910;-70
2022/04/26 08:32:37;;;;;;;;;;;18.50;99.90;;;;;;5010578;28;20385;-71
2022/04/26 08:35:03;;;;;;;;;;;18.70;99.90;;;;;;5009744;28;20408;-71
2022/04/26 08:37:29;;;;;;;;;;;18.80;99.90;;;;;;5012379;28;20337;-72
2022/04/26 08:39:55;;;;;;;;;;;18.90;99.90;;;;;;5009674;28;19914;-71
2022/04/26 08:42:53;;;;;;;;;;;18.90;99.90;;;;;;5012057;28;19953;-71
2022/04/26 08:45:19;;;;;;;;;;;19.00;99.90;;;;;;5021958;28;19905;-68
2022/04/26 08:53:18;;;;;;;;;;;18.80;99.90;;;;;;5011941;28;19912;-69
2022/04/26 08:55:45;;;;;;;;;;;18.60;99.90;;;;;;5012148;28;20424;-69
2022/04/26 08:58:13;;;;;;;;;;;18.50;99.90;;;;;;5010630;28;19991;-72
2022/04/26 09:00:39;;;;;;;;;;;18.50;99.90;;;;;;5012060;28;19906;-69
2022/04/26 09:03:07;;;;;;;;;;;18.30;99.90;;;;;;5010084;28;19909;-70
2022/04/26 09:05:33;;;;;;;;;;;18.30;99.90;;;;;;5008932;28;19913;-69
2022/04/26 09:07:58;;;;;;;;;;;18.30;99.90;;;;;;5011339;28;19979;-69
2022/04/26 09:10:25;;;;;;;;;;;18.30;99.90;;;;;;5010339;28;19906;-67
2022/04/26 09:13:04;;;;;;;;;;;18.20;99.90;;;;;;5011982;28;19913;-67
2022/04/26 09:15:38;;;;;;;;;;;18.30;99.90;;;;;;5010979;28;19960;-68
2022/04/26 09:18:15;;;;;;;;;;;18.30;99.90;;;;;;5010305;28;19909;-68
2022/04/26 09:20:42;;;;;;;;;;;18.30;99.90;;;;;;5011717;28;19917;-67
2022/04/26 09:23:22;;;;;;;;;;;18.30;99.90;;;;;;5010399;28;20012;-68
2022/04/26 09:25:51;;;;;;;;;;;18.60;99.90;;;;;;5010097;28;19913;-67
2022/04/26 09:28:24;;;;;;;;;;;18.50;99.90;;;;;;5010727;28;19905;-67
2022/04/26 09:30:51;;;;;;;;;;;18.50;99.90;;;;;;5009628;28;20429;-68
2022/04/26 09:33:30;;;;;;;;;;;18.40;99.90;;;;;;5011656;28;19956;-67
2022/04/26 09:35:59;;;;;;;;;;;18.10;99.90;;;;;;5010137;28;19913;-68
2022/04/26 09:38:25;;;;;;;;;;;18.20;99.90;;;;;;5010670;28;20000;-68
2022/04/26 09:40:51;;;;;;;;;;;18.10;99.90;;;;;;5009971;28;20092;-69
2022/04/26 09:43:16;;;;;;;;;;;18.10;99.90;;;;;;5011252;28;19952;-68
2022/04/26 09:45:56;;;;;;;;;;;18.10;99.90;;;;;;5011261;28;19992;-69
2022/04/26 09:48:25;;;;;;;;;;;18.00;99.90;;;;;;5010048;28;19921;-68
2022/04/26 09:50:51;;;;;;;;;;;18.00;99.90;;;;;;5007721;28;20329;-68
2022/04/26 09:53:16;;;;;;;;;;;17.90;99.90;;;;;;5006440;28;19914;-68
2022/04/26 09:55:42;;;;;;;;;;;17.50;99.90;;;;;;5006547;28;19921;-68
2022/04/26 09:58:08;;;;;;;;;;;17.10;99.90;;;;;;5011019;28;20404;-67
2022/04/26 10:00:33;;;;;;;;;;;16.80;99.90;;;;;;5010758;28;19915;-68
2022/04/26 10:03:05;;;;;;;;;;;16.60;99.90;;;;;;5007061;28;19909;-69
2022/04/26 10:05:31;;;;;;;;;;;16.30;99.90;;;;;;5002958;28;20031;-68
2022/04/26 10:07:57;;;;;;;;;;;16.10;99.90;;;;;;5007736;28;20285;-66
2022/04/26 10:10:23;;;;;;;;;;;15.90;99.90;;;;;;5007304;28;19916;-68
2022/04/26 10:15:34;;;;;;;;;;;15.50;99.90;;;;;;5010041;28;19921;-68
2022/04/26 10:18:00;;;;;;;;;;;15.30;99.90;;;;;;5008600;28;20007;-66
2022/04/26 10:20:41;;;;;;;;;;;15.40;99.90;;;;;;5003335;28;20306;-67
2022/04/26 10:23:07;;;;;;;;;;;15.50;99.90;;;;;;5008956;28;19932;-68
2022/04/26 10:25:33;;;;;;;;;;;15.60;99.90;;;;;;5010336;28;20419;-68
2022/04/26 10:28:16;;;;;;;;;;;15.80;99.90;;;;;;5010393;28;19932;-68
2022/04/26 10:30:49;;;;;;;;;;;16.00;99.90;;;;;;5005214;28;20000;-70
2022/04/26 10:33:33;;;;;;;;;;;16.10;99.90;;;;;;5010519;28;20000;-67
2022/04/26 10:36:25;;;;;;;;;;;16.20;99.90;;;;;;5008833;28;20033;-66
2022/04/26 10:39:07;;;;;;;;;;;16.20;99.90;;;;;;5007907;28;20008;-67
2022/04/26 10:41:35;;;;;;;;;;;16.30;99.90;;;;;;5010166;28;19932;-68
2022/04/26 10:44:13;;;;;;;;;;;16.20;99.90;;;;;;5009069;28;19916;-69
2022/04/26 10:46:42;;;;;;;;;;;16.10;99.90;;;;;;5008497;28;19909;-67
2022/04/26 10:49:40;;;;;;;;;;;16.10;99.90;;;;;;5008088;28;20314;-68
2022/04/26 10:52:18;;;;;;;;;;;16.30;99.90;;;;;;5008133;28;19909;-67
2022/04/26 10:54:47;;;;;;;;;;;16.60;99.90;;;;;;5012692;28;19924;-66
2022/04/26 10:57:19;;;;;;;;;;;16.60;99.90;;;;;;5013018;28;19959;-67
2022/04/26 10:59:46;;;;;;;;;;;16.80;99.90;;;;;;5008838;28;20638;-68
2022/04/26 11:02:16;;;;;;;;;;;16.70;99.90;;;;;;5015339;28;19920;-69
2022/04/26 11:04:41;;;;;;;;;;;17.00;99.90;;;;;;5014237;28;20336;-68
2022/04/26 11:07:10;;;;;;;;;;;17.10;99.90;;;;;;5012322;28;19964;-68
2022/04/26 11:09:36;;;;;;;;;;;17.30;99.90;;;;;;5010659;28;19912;-68
2022/04/26 11:12:02;;;;;;;;;;;17.60;99.90;;;;;;5009524;28;20312;-70
2022/04/26 11:14:28;;;;;;;;;;;18.00;99.90;;;;;;5013503;28;19909;-69
2022/04/26 11:17:02;;;;;;;;;;;17.90;99.90;;;;;;5013090;28;19913;-68
2022/04/26 11:19:29;;;;;;;;;;;17.70;99.90;;;;;;5014039;28;19905;-68
2022/04/26 11:21:55;;;;;;;;;;;17.70;99.90;;;;;;5012098;28;19914;-69
2022/04/26 11:29:53;;;;;;;;;;;18.00;99.90;;;;;;5013264;28;19928;-68
2022/04/26 11:32:32;;;;;;;;;;;18.20;99.90;;;;;;5012314;28;19913;-68
2022/04/26 11:34:57;;;;;;;;;;;18.30;99.90;;;;;;5010202;28;19949;-68
2022/04/26 11:37:23;;;;;;;;;;;18.40;99.90;;;;;;5013082;28;20499;-68
2022/04/26 11:39:49;;;;;;;;;;;18.70;99.90;;;;;;5012248;28;19916;-69
2022/04/26 11:42:14;;;;;;;;;;;18.60;99.90;;;;;;5012240;28;19924;-68
2022/04/26 11:44:59;;;;;;;;;;;18.50;99.90;;;;;;5013583;28;19906;-69
2022/04/26 11:47:37;;;;;;;;;;;18.70;99.90;;;;;;5012368;28;19944;-68
2022/04/26 11:50:08;;;;;;;;;;;18.80;99.90;;;;;;5010910;28;19913;-68
2022/04/26 11:52:34;;;;;;;;;;;19.00;99.90;;;;;;5012104;28;19909;-68
2022/04/26 11:55:00;;;;;;;;;;;19.20;99.90;;;;;;5013033;28;19905;-68
2022/04/26 11:57:25;;;;;;;;;;;19.40;99.90;;;;;;5011673;28;19913;-68
2022/04/26 11:59:51;;;;;;;;;;;19.70;99.90;;;;;;5011966;28;19909;-69
2022/04/26 12:02:16;;;;;;;;;;;19.70;99.90;;;;;;5012871;28;20113;-68
2022/04/26 12:04:42;;;;;;;;;;;19.60;99.90;;;;;;5010652;28;20028;-69
2022/04/26 12:07:08;;;;;;;;;;;19.60;99.90;;;;;;5011418;28;19912;-69
2022/04/26 12:09:34;;;;;;;;;;;19.60;99.90;;;;;;5010921;28;19917;-68
2022/04/26 12:12:05;;;;;;;;;;;19.50;99.90;;;;;;5012941;28;19913;-70
2022/04/26 12:14:30;;;;;;;;;;;19.20;99.90;;;;;;5011501;28;20045;-68
2022/04/26 12:16:56;;;;;;;;;;;19.10;99.90;;;;;;5013273;28;19915;-70
2022/04/26 12:19:35;;;;;;;;;;;19.10;99.90;;;;;;5012368;28;20000;-71
2022/04/26 12:22:01;;;;;;;;;;;19.40;99.90;;;;;;5009559;28;20275;-68
2022/04/26 12:24:29;;;;;;;;;;;19.40;99.90;;;;;;5012328;28;19913;-67
2022/04/26 12:26:58;;;;;;;;;;;19.10;99.90;;;;;;5013566;28;19913;-68
2022/04/26 12:29:25;;;;;;;;;;;19.00;99.90;;;;;;5013228;28;19963;-70
2022/04/26 12:31:51;;;;;;;;;;;19.00;99.90;;;;;;5008177;28;19957;-69
2022/04/26 12:34:17;;;;;;;;;;;19.00;99.90;;;;;;5011777;28;20496;-70
2022/04/26 12:36:52;;;;;;;;;;;18.90;99.90;;;;;;5012288;28;19909;-69
2022/04/26 12:39:18;;;;;;;;;;;18.80;99.90;;;;;;5009759;28;20008;-67
2022/04/26 12:41:48;;;;;;;;;;;18.40;99.90;;;;;;5011312;28;19935;-69
2022/04/26 12:44:14;;;;;;;;;;;18.00;99.90;;;;;;5011181;28;19909;-70
2022/04/26 12:46:45;;;;;;;;;;;17.80;99.90;;;;;;5011515;28;19916;-68
2022/04/26 12:51:57;;;;;;;;;;;17.60;99.90;;;;;;5012039;28;20293;-70
2022/04/26 12:54:22;;;;;;;;;;;17.50;99.90;;;;;;5012989;28;19953;-69
2022/04/26 12:57:03;;;;;;;;;;;17.30;99.90;;;;;;5010802;28;19969;-71
2022/04/26 12:59:35;;;;;;;;;;;17.20;99.90;;;;;;5012388;28;19905;-69
2022/04/26 13:02:01;;;;;;;;;;;17.40;99.90;;;;;;5011059;28;19905;-69
2022/04/26 13:04:27;;;;;;;;;;;17.40;99.90;;;;;;5009107;28;20292;-68
2022/04/26 13:06:53;;;;;;;;;;;17.40;99.90;;;;;;5012426;28;20327;-68
2022/04/26 13:09:18;;;;;;;;;;;17.20;99.90;;;;;;5011113;28;19996;-68
2022/04/26 13:11:45;;;;;;;;;;;17.10;99.90;;;;;;5012008;28;19909;-70
2022/04/26 13:14:11;;;;;;;;;;;17.10;99.90;;;;;;5012090;28;19921;-66
2022/04/26 13:16:36;;;;;;;;;;;17.10;99.90;;;;;;5012970;28;19917;-68
2022/04/26 13:19:02;;;;;;;;;;;17.00;99.90;;;;;;5010586;28;19905;-69
2022/04/26 13:21:28;;;;;;;;;;;17.20;99.90;;;;;;5007946;28;19913;-69
2022/04/26 13:23:57;;;;;;;;;;;17.40;99.90;;;;;;5005523;28;19935;-69
2022/04/26 13:26:23;;;;;;;;;;;17.60;99.90;;;;;;5011141;28;19905;-68
2022/04/26 13:28:48;;;;;;;;;;;17.70;99.90;;;;;;5010410;28;19916;-72
2022/04/26 13:31:14;;;;;;;;;;;17.70;99.90;;;;;;5007608;28;20009;-69
2022/04/26 13:33:42;;;;;;;;;;;17.80;99.90;;;;;;5010423;28;20270;-68
2022/04/26 13:36:08;;;;;;;;;;;18.10;99.90;;;;;;5009919;28;19913;-69
2022/04/26 13:38:33;;;;;;;;;;;18.30;99.90;;;;;;5008447;28;19913;-66
2022/04/26 13:41:00;;;;;;;;;;;18.40;99.90;;;;;;5006638;28;20003;-68
2022/04/26 13:43:25;;;;;;;;;;;18.60;99.90;;;;;;5007567;28;19910;-69
2022/04/26 13:45:51;;;;;;;;;;;18.70;99.90;;;;;;5009504;28;20051;-68
2022/04/26 13:48:17;;;;;;;;;;;18.60;99.90;;;;;;5007754;28;19906;-69
2022/04/26 13:50:43;;;;;;;;;;;17.80;99.90;;;;;;5006416;28;19913;-70
2022/04/26 13:53:08;;;;;;;;;;;17.30;99.90;;;;;;5010210;28;20336;-69
2022/04/26 13:55:34;;;;;;;;;;;17.20;99.90;;;;;;5009910;28;19917;-70
2022/04/26 13:58:03;;;;;;;;;;;17.10;99.90;;;;;;5009490;28;19909;-69
2022/04/26 14:00:30;;;;;;;;;;;16.90;99.90;;;;;;5005180;28;19905;-71
2022/04/26 14:02:56;;;;;;;;;;;16.50;99.90;;;;;;5008634;28;19909;-67
2022/04/26 14:05:23;;;;;;;;;;;16.30;99.90;;;;;;5010336;28;19963;-68
2022/04/26 14:07:48;;;;;;;;;;;16.30;99.90;;;;;;5010844;28;19909;-70
2022/04/26 14:10:15;;;;;;;;;;;16.00;99.90;;;;;;5007221;28;19930;-68
2022/04/26 14:12:41;;;;;;;;;;;15.80;99.90;;;;;;5007683;28;19913;-68
2022/04/26 14:23:19;;;;;;;;;;;16.20;99.90;;;;;;5010854;28;19912;-70
2022/04/26 14:25:45;;;;;;;;;;;16.10;99.90;;;;;;5009743;28;20003;-69
2022/04/26 14:28:10;;;;;;;;;;;16.10;99.90;;;;;;5009616;28;19916;-71
2022/04/26 14:30:36;;;;;;;;;;;16.20;99.90;;;;;;5012693;28;19973;-70
2022/04/26 14:33:02;;;;;;;;;;;16.40;99.90;;;;;;5013346;28;19913;-70
2022/04/26 14:35:29;;;;;;;;;;;16.70;99.90;;;;;;5012080;28;20012;-69
2022/04/26 14:37:54;;;;;;;;;;;16.80;99.90;;;;;;5013077;28;19909;-69
2022/04/26 14:40:20;;;;;;;;;;;16.70;99.90;;;;;;5009440;28;19913;-67
2022/04/26 14:42:46;;;;;;;;;;;16.50;99.90;;;;;;5008368;28;19916;-68
2022/04/26 14:45:12;;;;;;;;;;;16.70;99.90;;;;;;5008833;28;20060;-67
2022/04/26 14:47:38;;;;;;;;;;;17.00;99.90;;;;;;5012374;28;19917;-67
2022/04/26 14:50:05;;;;;;;;;;;17.30;99.90;;;;;;5011930;28;19917;-70
2022/04/26 14:52:30;;;;;;;;;;;17.50;99.90;;;;;;5009648;28;20328;-69
2022/04/26 14:54:57;;;;;;;;;;;17.80;99.90;;;;;;5012854;28;19959;-68
2022/04/26 14:57:23;;;;;;;;;;;17.80;99.90;;;;;;5014743;28;20380;-68
2022/04/26 14:59:48;;;;;;;;;;;17.90;99.90;;;;;;5013694;28;19910;-69
2022/04/26 15:02:21;;;;;;;;;;;18.00;99.90;;;;;;5009174;28;19920;-70
2022/04/26 15:04:48;;;;;;;;;;;18.10;99.90;;;;;;5009993;28;19909;-68
2022/04/26 15:07:14;;;;;;;;;;;18.20;99.90;;;;;;5016040;28;19920;-69
2022/04/26 15:09:43;;;;;;;;;;;18.30;99.90;;;;;;5018496;28;19917;-70
2022/04/26 15:17:39;;;;;;;;;;;18.80;99.90;;;;;;5011507;28;19960;-69
2022/04/26 15:20:05;;;;;;;;;;;18.60;99.90;;;;;;5013657;28;20277;-70
2022/04/26 15:22:31;;;;;;;;;;;18.50;99.90;;;;;;5014685;28;19932;-68
2022/04/26 15:24:57;;;;;;;;;;;18.50;99.90;;;;;;5007946;28;20008;-69
2022/04/26 15:27:24;;;;;;;;;;;18.50;99.90;;;;;;5013673;28;20320;-70
2022/04/26 15:29:49;;;;;;;;;;;18.50;99.90;;;;;;5007640;28;19917;-70
2022/04/26 15:32:15;;;;;;;;;;;18.60;99.90;;;;;;5013164;28;19919;-69
2022/04/26 15:34:41;;;;;;;;;;;18.80;99.90;;;;;;5013432;28;20100;-69
2022/04/26 15:37:07;;;;;;;;;;;19.00;99.90;;;;;;5012883;28;20026;-69
2022/04/26 15:39:33;;;;;;;;;;;19.20;99.90;;;;;;5013197;28;20333;-68
2022/04/26 15:42:03;;;;;;;;;;;19.00;99.90;;;;;;5013453;28;20008;-68
2022/04/26 15:44:32;;;;;;;;;;;18.70;99.90;;;;;;5011653;28;20378;-68
2022/04/26 15:46:58;;;;;;;;;;;18.60;99.90;;;;;;5006967;28;19952;-68
2022/04/26 15:49:24;;;;;;;;;;;18.50;99.90;;;;;;5012233;28;19923;-68
2022/04/26 15:51:51;;;;;;;;;;;18.50;99.90;;;;;;5012752;28;19905;-69
2022/04/26 15:54:17;;;;;;;;;;;18.40;99.90;;;;;;5011938;28;20377;-68
2022/04/26 15:56:43;;;;;;;;;;;18.40;99.90;;;;;;5012876;28;19913;-70
2022/04/26 15:59:09;;;;;;;;;;;18.40;99.90;;;;;;5011824;28;19905;-68
2022/04/26 16:01:36;;;;;;;;;;;18.50;99.90;;;;;;5010101;28;19909;-70
2022/04/26 16:04:01;;;;;;;;;;;18.70;99.90;;;;;;5013114;28;19941;-68
2022/04/26 16:06:27;;;;;;;;;;;18.70;99.90;;;;;;5012266;28;19971;-69
2022/04/26 16:20:28;;;;;;;;;;;18.80;99.90;;;;;;5013597;28;20338;-68
2022/04/26 16:22:35;;;;;;;;;;;19.30;99.90;;;;;;5009504;28;19960;-69
2022/04/26 16:25:01;;;;;;;;;;;19.20;99.90;;;;;;5011713;28;19984;-69
2022/04/26 16:27:27;;;;;;;;;;;19.20;99.90;;;;;;5011931;28;19906;-67
2022/04/26 16:29:52;;;;;;;;;;;19.10;99.90;;;;;;5012294;28;19992;-68
2022/04/26 16:32:18;;;;;;;;;;;19.40;99.90;;;;;;5012827;28;20385;-69
2022/04/26 16:34:43;;;;;;;;;;;19.40;99.90;;;;;;5011261;28;20381;-69
2022/04/26 16:37:09;;;;;;;;;;;19.50;99.90;;;;;;5010572;28;19985;-70
2022/04/26 16:39:35;;;;;;;;;;;19.30;99.90;;;;;;5011458;28;19984;-71
2022/04/26 16:42:00;;;;;;;;;;;18.80;99.90;;;;;;5013108;28;19960;-68
2022/04/26 16:44:31;;;;;;;;;;;18.40;99.90;;;;;;5012756;28;20302;-69
2022/04/26 16:46:57;;;;;;;;;;;18.20;99.90;;;;;;5004065;28;20004;-70
2022/04/26 16:49:23;;;;;;;;;;;17.80;99.90;;;;;;5010146;28;19948;-71
2022/04/26 16:51:48;;;;;;;;;;;17.70;99.90;;;;;;5010456;28;19913;-69
2022/04/26 16:54:18;;;;;;;;;;;17.70;99.90;;;;;;5011389;28;19932;-69
2022/04/26 16:56:43;;;;;;;;;;;17.70;99.90;;;;;;5012827;28;19909;-68
2022/04/26 16:59:09;;;;;;;;;;;17.80;99.90;;;;;;5011357;28;20369;-71
2022/04/26 17:01:35;;;;;;;;;;;17.60;99.90;;;;;;5009894;28;19949;-67
2022/04/26 17:04:03;;;;;;;;;;;17.50;99.90;;;;;;5011144;28;19914;-70
2022/04/26 17:06:31;;;;;;;;;;;17.50;99.90;;;;;;5011908;28;20392;-71
2022/04/26 17:08:57;;;;;;;;;;;17.50;99.90;;;;;;5013526;28;19905;-69
2022/04/26 17:14:07;;;;;;;;;;;17.40;99.90;;;;;;5012743;28;19916;-71
2022/04/26 17:16:32;;;;;;;;;;;17.10;99.90;;;;;;5007705;28;20293;-73
2022/04/26 17:18:58;;;;;;;;;;;16.70;99.90;;;;;;5010634;28;19956;-70
2022/04/26 17:21:24;;;;;;;;;;;16.40;99.90;;;;;;5012469;28;20269;-69
2022/04/26 17:23:50;;;;;;;;;;;16.10;99.90;;;;;;5012441;28;19906;-70
2022/04/26 17:26:17;;;;;;;;;;;15.90;99.90;;;;;;5012595;28;19912;-69
2022/04/26 17:28:43;;;;;;;;;;;15.70;99.90;;;;;;5010719;28;20284;-70
2022/04/26 17:31:09;;;;;;;;;;;15.40;99.90;;;;;;5011340;28;19909;-70
2022/04/26 17:33:34;;;;;;;;;;;15.40;99.90;;;;;;5009556;28;19917;-69
2022/04/26 17:36:01;;;;;;;;;;;15.40;99.90;;;;;;5006113;28;19947;-70
2022/04/26 17:38:27;;;;;;;;;;;15.50;99.90;;;;;;5010058;28;19910;-70
2022/04/26 17:40:53;;;;;;;;;;;15.40;99.90;;;;;;5011024;28;19905;-69
2022/04/26 17:43:18;;;;;;;;;;;15.20;99.90;;;;;;5009802;28;20503;-70
2022/04/26 17:45:46;;;;;;;;;;;15.30;99.90;;;;;;5009368;28;20366;-71
2022/04/26 17:48:15;;;;;;;;;;;15.40;99.90;;;;;;5008800;28;19913;-69
2022/04/26 17:50:43;;;;;;;;;;;15.20;99.90;;;;;;5009546;28;20266;-67
2022/04/26 17:58:38;;;;;;;;;;;14.80;99.90;;;;;;5024049;28;20047;-74
2022/04/26 18:01:03;;;;;;;;;;;14.70;99.90;;;;;;5021624;28;19909;-75
2022/04/26 18:03:30;;;;;;;;;;;14.70;99.90;;;;;;5022698;28;19910;-76
2022/04/26 18:05:56;;;;;;;;;;;14.70;99.90;;;;;;5021190;28;20369;-76
2022/04/26 18:08:23;;;;;;;;;;;14.60;99.90;;;;;;5014078;28;20301;-76
2022/04/26 18:10:50;;;;;;;;;;;14.60;99.90;;;;;;5013481;28;19976;-77
2022/04/26 18:13:16;;;;;;;;;;;14.60;99.90;;;;;;5012568;28;19995;-75
2022/04/26 18:15:42;;;;;;;;;;;14.50;99.90;;;;;;5013093;28;19960;-75
2022/04/26 18:18:07;;;;;;;;;;;14.50;99.90;;;;;;5017181;28;19909;-76
2022/04/26 18:20:33;;;;;;;;;;;14.50;99.90;;;;;;5013951;28;19912;-76
2022/04/26 18:23:00;;;;;;;;;;;14.50;99.90;;;;;;5017722;28;20009;-77
2022/04/26 18:28:12;;;;;;;;;;;14.60;99.90;;;;;;5016287;28;19917;-76
2022/04/26 18:30:37;;;;;;;;;;;14.60;99.90;;;;;;5015361;28;19915;-77
2022/04/26 18:33:03;;;;;;;;;;;14.60;99.90;;;;;;5015548;28;20429;-77
2022/04/26 18:35:28;;;;;;;;;;;14.60;99.90;;;;;;5015985;28;19909;-75
2022/04/26 18:37:54;;;;;;;;;;;14.60;99.90;;;;;;5016459;28;19915;-75
2022/04/26 18:40:20;;;;;;;;;;;14.70;99.90;;;;;;5013128;28;19932;-74
2022/04/26 18:42:47;;;;;;;;;;;14.80;99.90;;;;;;5014300;28;19909;-77
2022/04/26 18:45:13;;;;;;;;;;;14.80;99.90;;;;;;5012314;28;19915;-77
2022/04/26 18:47:39;;;;;;;;;;;14.90;99.90;;;;;;5011535;28;20723;-79
2022/04/26 18:50:05;;;;;;;;;;;15.00;99.90;;;;;;5014096;28;19928;-76
2022/04/26 18:52:31;;;;;;;;;;;15.10;99.90;;;;;;5015001;28;19905;-76